createdAt,value
2019-02-27T00:00:33.139Z,98142.03
2019-02-27T00:03:05.701Z,98134.00
2019-02-27T00:05:36.300Z,98136.68
2019-02-27T00:08:06.961Z,98152.27
2019-02-27T00:10:39.307Z,98149.52
2019-02-27T00:13:09.683Z,98144.25
2019-02-27T00:15:40.219Z,98148.11
2019-02-27T00:18:10.598Z,98143.72
2019-02-27T00:20:41.263Z,98150.78
2019-02-27T00:23:11.936Z,98149.87
2019-02-27T00:25:42.455Z,98152.55
2019-02-27T00:28:14.457Z,98147.19
2019-02-27T00:30:47.726Z,98148.92
2019-02-27T00:33:18.245Z,98153.34
2019-02-27T00:35:51.467Z,98146.66
2019-02-27T00:38:22.798Z,98152.89
2019-02-27T00:40:56.848Z,98143.03
2019-02-27T00:43:28.390Z,98144.34
2019-02-27T00:45:59.455Z,98148.73
2019-02-27T00:48:29.768Z,98144.34
2019-02-27T00:51:00.521Z,98150.00
2019-02-27T00:53:31.105Z,98147.81
2019-02-27T00:56:01.645Z,98145.14
2019-02-27T00:58:32.101Z,98146.48
2019-02-27T01:01:02.788Z,98138.77
2019-02-27T01:03:33.243Z,98137.04
2019-02-27T01:06:03.669Z,98130.35
2019-02-27T01:08:34.515Z,98133.41
2019-02-27T01:11:05.180Z,98127.22
2019-02-27T01:13:35.585Z,98134.71
2019-02-27T01:16:06.083Z,98130.20
2019-02-27T01:18:36.476Z,98123.52
2019-02-27T01:21:06.947Z,98125.81
2019-02-27T01:23:37.413Z,98130.70
2019-02-27T01:26:07.884Z,98128.02
2019-02-27T01:28:38.367Z,98129.29
2019-02-27T01:31:08.948Z,98126.16
2019-02-27T01:33:39.968Z,98129.29
2019-02-27T01:36:10.544Z,98128.30
2019-02-27T01:38:40.987Z,98125.66
2019-02-27T01:41:11.685Z,98119.85
2019-02-27T01:43:42.237Z,98118.93
2019-02-27T01:46:12.735Z,98111.75
2019-02-27T01:48:43.872Z,98110.83
2019-02-27T01:51:14.441Z,98106.40
2019-02-27T01:53:44.867Z,98101.05
2019-02-27T01:56:15.436Z,98098.79
2019-02-27T01:58:46.039Z,98100.12
2019-02-27T02:01:16.491Z,98093.82
2019-02-27T02:03:48.051Z,98092.48
2019-02-27T02:06:18.752Z,98093.82
2019-02-27T02:08:49.530Z,98090.30
2019-02-27T02:11:23.084Z,98087.55
2019-02-27T02:14:09.284Z,98095.13
2019-02-27T02:17:16.538Z,98085.75
2019-02-27T02:20:20.943Z,98088.89
2019-02-27T02:23:27.743Z,98086.67
2019-02-27T02:26:21.848Z,98094.70
2019-02-27T02:29:29.378Z,98087.94
2019-02-27T02:32:29.243Z,98076.43
2019-02-27T02:35:37.304Z,98072.84
2019-02-27T02:38:27.423Z,98068.82
2019-02-27T02:41:46.267Z,98071.95
2019-02-27T02:44:57.114Z,98072.77
2019-02-27T02:47:46.758Z,98069.20
2019-02-27T02:50:53.968Z,98060.80
2019-02-27T02:54:05.599Z,98070.96
2019-02-27T02:57:35.933Z,98066.95
2019-02-27T03:00:22.843Z,98075.90
2019-02-27T03:03:35.987Z,98065.61
2019-02-27T03:06:52.280Z,98070.01
2019-02-27T03:09:57.133Z,98066.88
2019-02-27T03:13:14.543Z,98063.32
2019-02-27T03:16:12.210Z,98064.62
2019-02-27T03:18:51.881Z,98062.86
2019-02-27T03:22:21.886Z,98058.31
2019-02-27T03:25:21.111Z,98057.84
2019-02-27T03:28:41.819Z,98060.98
2019-02-27T03:31:36.893Z,98062.25
2019-02-27T03:34:50.454Z,98057.84
2019-02-27T03:37:59.239Z,98054.22
2019-02-27T03:41:22.512Z,98048.41
2019-02-27T03:44:20.698Z,98041.72
2019-02-27T03:47:25.845Z,98044.31
2019-02-27T03:50:33.165Z,98050.13
2019-02-27T03:53:54.476Z,98051.92
2019-02-27T03:57:20.200Z,98047.48
2019-02-27T04:00:36.195Z,98043.89
2019-02-27T04:04:02.022Z,98046.56
2019-02-27T04:06:53.103Z,98046.56
2019-02-27T04:09:22.897Z,98049.66
2019-02-27T04:11:53.373Z,98041.14
2019-02-27T04:14:31.237Z,98041.55
2019-02-27T04:17:05.474Z,98037.47
2019-02-27T04:19:38.759Z,98038.34
2019-02-27T04:22:06.264Z,98042.36
2019-02-27T04:24:37.968Z,98044.08
2019-02-27T04:27:08.828Z,98043.16
2019-02-27T04:29:41.123Z,98042.69
2019-02-27T04:32:13.142Z,98041.36
2019-02-27T04:34:46.544Z,98043.95
2019-02-27T04:37:19.875Z,98038.14
2019-02-27T04:39:49.240Z,98037.73
2019-02-27T04:42:19.731Z,98033.71
2019-02-27T04:44:50.103Z,98031.45
2019-02-27T04:47:20.498Z,98019.87
2019-02-27T04:49:51.040Z,98030.91
2019-02-27T04:52:21.936Z,98030.95
2019-02-27T04:54:54.140Z,98028.23
2019-02-27T04:57:24.686Z,98026.82
2019-02-27T04:59:55.369Z,98033.09
2019-02-27T05:02:26.000Z,98041.62
2019-02-27T05:04:57.995Z,98039.41
2019-02-27T05:07:28.351Z,98041.73
2019-02-27T05:09:58.960Z,98039.48
2019-02-27T05:12:29.395Z,98041.66
2019-02-27T05:15:00.818Z,98042.62
2019-02-27T05:17:32.396Z,98047.52
2019-02-27T05:20:03.307Z,98036.31
2019-02-27T05:22:33.893Z,98043.42
2019-02-27T05:25:05.504Z,98048.77
2019-02-27T05:27:41.271Z,98046.97
2019-02-27T05:30:12.807Z,98053.17
2019-02-27T05:32:43.649Z,98054.50
2019-02-27T05:35:14.611Z,98063.41
2019-02-27T05:37:47.542Z,98070.11
2019-02-27T05:40:18.712Z,98075.88
2019-02-27T05:42:52.330Z,98077.59
2019-02-27T05:45:24.910Z,98080.28
2019-02-27T05:48:03.980Z,98076.27
2019-02-27T05:50:37.392Z,98082.03
2019-02-27T05:53:10.550Z,98081.08
2019-02-27T05:55:41.495Z,98084.17
2019-02-27T05:58:14.036Z,98087.16
2019-02-27T06:00:44.568Z,98092.51
2019-02-27T06:03:15.895Z,98094.72
2019-02-27T06:05:49.756Z,98093.84
2019-02-27T06:08:19.645Z,98102.75
2019-02-27T06:10:55.202Z,98098.73
2019-02-27T06:13:22.162Z,98104.52
2019-02-27T06:15:52.525Z,98106.69
2019-02-27T06:18:23.755Z,98105.36
2019-02-27T06:20:55.827Z,98112.05
2019-02-27T06:23:26.261Z,98108.03
2019-02-27T06:25:59.462Z,98111.51
2019-02-27T06:28:28.901Z,98107.49
2019-02-27T06:30:59.388Z,98107.03
2019-02-27T06:33:30.942Z,98105.23
2019-02-27T06:36:01.452Z,98110.59
2019-02-27T06:38:32.125Z,98116.33
2019-02-27T06:41:02.637Z,98113.11
2019-02-27T06:43:33.866Z,98107.76
2019-02-27T06:46:06.132Z,98113.99
2019-02-27T06:48:37.819Z,98118.88
2019-02-27T06:51:08.433Z,98117.93
2019-02-27T06:53:39.136Z,98120.56
2019-02-27T06:56:09.576Z,98121.48
2019-02-27T06:58:40.175Z,98112.91
2019-02-27T07:01:13.092Z,98110.70
2019-02-27T07:03:42.754Z,98110.12
2019-02-27T07:06:13.444Z,98110.96
2019-02-27T07:08:43.848Z,98117.20
2019-02-27T07:11:14.120Z,98122.47
2019-02-27T07:13:47.143Z,98124.23
2019-02-27T07:16:20.552Z,98117.53
2019-02-27T07:18:51.448Z,98117.92
2019-02-27T07:21:21.925Z,98120.05
2019-02-27T07:23:57.545Z,98116.04
2019-02-27T07:26:24.638Z,98116.58
2019-02-27T07:28:55.262Z,98118.80
2019-02-27T07:31:25.728Z,98116.92
2019-02-27T07:33:58.677Z,98118.59
2019-02-27T07:36:29.049Z,98119.52
2019-02-27T07:38:59.502Z,98118.59
2019-02-27T07:41:29.998Z,98116.30
2019-02-27T07:44:00.472Z,98117.64
2019-02-27T07:46:31.182Z,98119.78
2019-02-27T07:49:01.737Z,98118.44
2019-02-27T07:51:32.172Z,98120.20
2019-02-27T07:54:03.983Z,98121.45
2019-02-27T07:56:35.641Z,98120.13
2019-02-27T07:59:06.690Z,98113.00
2019-02-27T08:01:43.772Z,98118.36
2019-02-27T08:04:09.821Z,98114.22
2019-02-27T08:06:41.529Z,98104.92
2019-02-27T08:09:12.216Z,98106.65
2019-02-27T08:11:47.128Z,98115.14
2019-02-27T08:14:14.827Z,98112.47
2019-02-27T08:16:45.555Z,98113.34
2019-02-27T08:19:15.920Z,98113.27
2019-02-27T08:21:46.600Z,98118.16
2019-02-27T08:24:16.969Z,98117.28
2019-02-27T08:26:49.069Z,98111.47
2019-02-27T08:29:20.500Z,98112.34
2019-02-27T08:31:50.993Z,98109.67
2019-02-27T08:34:21.421Z,98109.25
2019-02-27T08:36:51.971Z,98111.08
2019-02-27T08:39:22.505Z,98116.44
2019-02-27T08:41:52.975Z,98116.83
2019-02-27T08:44:26.395Z,98117.70
2019-02-27T08:46:57.764Z,98110.55
2019-02-27T08:49:28.178Z,98112.80
2019-02-27T08:51:58.659Z,98115.02
2019-02-27T08:54:32.167Z,98110.05
2019-02-27T08:57:01.127Z,98116.75
2019-02-27T08:59:31.727Z,98120.72
2019-02-27T09:02:03.184Z,98120.30
2019-02-27T09:04:34.519Z,98116.75
2019-02-27T09:07:07.784Z,98116.28
2019-02-27T09:09:38.227Z,98110.05
2019-02-27T09:12:13.200Z,98112.73
2019-02-27T09:14:41.900Z,98111.80
2019-02-27T09:17:12.740Z,98116.75
2019-02-27T09:19:45.666Z,98109.59
2019-02-27T09:22:16.513Z,98120.30
2019-02-27T09:24:47.260Z,98115.83
2019-02-27T09:27:18.575Z,98114.41
2019-02-27T09:29:49.449Z,98109.51
2019-02-27T09:32:21.210Z,98115.83
2019-02-27T09:34:51.699Z,98109.51
2019-02-27T09:37:22.122Z,98112.19
2019-02-27T09:39:52.664Z,98101.09
2019-02-27T09:42:23.046Z,98108.17
2019-02-27T09:44:53.671Z,98100.13
2019-02-27T09:47:25.762Z,98105.48
2019-02-27T09:49:57.079Z,98111.73
2019-02-27T09:52:30.080Z,98102.34
2019-02-27T09:55:00.422Z,98104.56
2019-02-27T09:57:32.903Z,98099.59
2019-02-27T10:00:04.047Z,98104.91
2019-02-27T10:02:34.675Z,98102.69
2019-02-27T10:05:05.250Z,98097.25
2019-02-27T10:07:39.906Z,98094.11
2019-02-27T10:10:10.971Z,98094.49
2019-02-27T10:12:43.827Z,98075.28
2019-02-27T10:15:14.113Z,98074.41
2019-02-27T10:17:44.946Z,98080.25
2019-02-27T10:20:15.444Z,98076.70
2019-02-27T10:22:45.802Z,98072.68
2019-02-27T10:25:16.238Z,98066.86
2019-02-27T10:27:47.391Z,98066.32
2019-02-27T10:30:17.886Z,98070.34
2019-02-27T10:32:48.293Z,98068.04
2019-02-27T10:35:18.747Z,98068.04
2019-02-27T10:37:50.780Z,98057.33
2019-02-27T10:40:21.206Z,98061.34
2019-02-27T10:42:51.646Z,98061.80
2019-02-27T10:45:22.257Z,98064.02
2019-02-27T10:47:52.762Z,98056.06
2019-02-27T10:50:23.168Z,98056.06
2019-02-27T10:52:53.547Z,98054.27
2019-02-27T10:55:23.999Z,98053.72
2019-02-27T10:57:54.713Z,98047.95
2019-02-27T11:00:28.996Z,98051.05
2019-02-27T11:02:59.623Z,98041.66
2019-02-27T11:05:31.963Z,98045.19
2019-02-27T11:08:03.408Z,98044.73
2019-02-27T11:10:33.853Z,98044.64
2019-02-27T11:13:06.742Z,98040.70
2019-02-27T11:15:41.438Z,98038.98
2019-02-27T11:18:11.430Z,98036.23
2019-02-27T11:20:41.988Z,98028.66
2019-02-27T11:23:12.417Z,98031.66
2019-02-27T11:25:43.158Z,98031.74
2019-02-27T11:28:13.718Z,98021.49
2019-02-27T11:30:44.390Z,98024.97
2019-02-27T11:33:25.131Z,98024.97
2019-02-27T11:35:47.279Z,98023.62
2019-02-27T11:38:17.858Z,98021.33
2019-02-27T11:40:48.287Z,98014.71
2019-02-27T11:43:18.865Z,98009.81
2019-02-27T11:45:49.219Z,98013.78
2019-02-27T11:48:20.315Z,98005.75
2019-02-27T11:50:51.896Z,97991.48
2019-02-27T11:53:24.052Z,97992.81
2019-02-27T11:55:55.091Z,97987.46
2019-02-27T11:58:25.697Z,97983.02
2019-02-27T12:00:56.372Z,97987.00
2019-02-27T12:03:26.813Z,97980.30
2019-02-27T12:05:57.417Z,97979.34
2019-02-27T12:08:27.890Z,97968.63
2019-02-27T12:10:58.621Z,97966.41
2019-02-27T12:13:29.109Z,97962.34
2019-02-27T12:15:59.581Z,97950.83
2019-02-27T12:18:32.201Z,97955.23
2019-02-27T12:21:02.217Z,97943.17
2019-02-27T12:23:32.901Z,97946.73
2019-02-27T12:26:03.445Z,97949.88
2019-02-27T12:28:33.896Z,97942.25
2019-02-27T12:31:08.158Z,97940.41
2019-02-27T12:33:38.104Z,97937.34
2019-02-27T12:36:09.058Z,97939.07
2019-02-27T12:38:42.304Z,97940.82
2019-02-27T12:41:12.359Z,97939.02
2019-02-27T12:43:42.976Z,97936.80
2019-02-27T12:46:13.630Z,97931.03
2019-02-27T12:48:46.470Z,97932.78
2019-02-27T12:51:16.298Z,97928.30
2019-02-27T12:53:54.346Z,97925.63
2019-02-27T12:56:23.488Z,97924.28
2019-02-27T12:58:58.243Z,97927.52
2019-02-27T13:01:25.901Z,97921.11
2019-02-27T13:03:58.572Z,97917.17
2019-02-27T13:06:28.806Z,97916.71
2019-02-27T13:08:59.247Z,97917.59
2019-02-27T13:11:29.878Z,97920.18
2019-02-27T13:14:00.401Z,97922.39
2019-02-27T13:16:31.022Z,97915.70
2019-02-27T13:19:06.312Z,97919.72
2019-02-27T13:21:33.624Z,97917.03
2019-02-27T13:24:04.172Z,97917.03
2019-02-27T13:26:35.402Z,97912.52
2019-02-27T13:29:06.085Z,97910.34
2019-02-27T13:31:36.561Z,97913.48
2019-02-27T13:34:07.183Z,97913.95
2019-02-27T13:36:39.805Z,97901.89
2019-02-27T13:39:09.891Z,97897.95
2019-02-27T13:41:42.489Z,97896.53
2019-02-27T13:44:13.569Z,97895.27
2019-02-27T13:46:44.207Z,97892.13
2019-02-27T13:49:14.771Z,97892.13
2019-02-27T13:51:45.514Z,97885.02
2019-02-27T13:54:16.141Z,97890.79
2019-02-27T13:56:46.980Z,97889.13
2019-02-27T13:59:17.298Z,97885.11
2019-02-27T14:01:47.720Z,97880.13
2019-02-27T14:04:21.832Z,97883.69
2019-02-27T14:06:54.883Z,97883.30
2019-02-27T14:09:26.575Z,97877.07
2019-02-27T14:11:58.822Z,97882.89
2019-02-27T14:14:30.153Z,97878.49
2019-02-27T14:17:01.076Z,97877.16
2019-02-27T14:19:32.473Z,97879.83
2019-02-27T14:22:07.198Z,97877.16
2019-02-27T14:24:38.234Z,97866.91
2019-02-27T14:27:08.519Z,97866.91
2019-02-27T14:29:39.122Z,97874.47
2019-02-27T14:32:17.081Z,97871.80
2019-02-27T14:34:49.913Z,97865.23
2019-02-27T14:37:26.213Z,97861.22
2019-02-27T14:39:58.163Z,97856.27
2019-02-27T14:42:29.190Z,97853.19
2019-02-27T14:45:02.959Z,97854.52
2019-02-27T14:47:36.003Z,97857.38
2019-02-27T14:50:07.223Z,97852.86
2019-02-27T14:52:39.309Z,97851.05
2019-02-27T14:55:11.104Z,97852.80
2019-02-27T14:57:42.129Z,97850.04
2019-02-27T15:00:19.098Z,97843.34
2019-02-27T15:02:52.010Z,97838.91
2019-02-27T15:05:22.901Z,97841.67
2019-02-27T15:07:54.819Z,97837.66
2019-02-27T15:10:25.663Z,97833.00
2019-02-27T15:12:56.697Z,97836.56
2019-02-27T15:15:29.402Z,97838.36
2019-02-27T15:18:01.128Z,97841.91
2019-02-27T15:20:32.061Z,97840.58
2019-02-27T15:23:02.713Z,97842.00
2019-02-27T15:25:33.556Z,97846.90
2019-02-27T15:28:05.021Z,97850.83
2019-02-27T15:30:35.973Z,97837.44
2019-02-27T15:33:06.529Z,97835.69
2019-02-27T15:35:37.034Z,97841.04
2019-02-27T15:38:11.373Z,97840.11
2019-02-27T15:40:39.915Z,97840.20
2019-02-27T15:43:16.982Z,97833.09
2019-02-27T15:45:47.914Z,97833.50
2019-02-27T15:48:18.560Z,97830.83
2019-02-27T15:50:49.840Z,97825.60
2019-02-27T15:53:20.523Z,97835.77
2019-02-27T15:55:51.245Z,97826.06
2019-02-27T15:58:21.671Z,97830.41
2019-02-27T16:00:53.370Z,97830.41
2019-02-27T16:03:24.901Z,97836.97
2019-02-27T16:05:55.316Z,97829.86
2019-02-27T16:08:26.118Z,97824.10
2019-02-27T16:10:56.757Z,97832.02
2019-02-27T16:13:27.220Z,97825.89
2019-02-27T16:15:57.681Z,97824.98
2019-02-27T16:18:28.802Z,97827.05
2019-02-27T16:21:01.891Z,97827.97
2019-02-27T16:23:37.200Z,97825.75
2019-02-27T16:26:04.673Z,97828.98
2019-02-27T16:28:36.789Z,97831.66
2019-02-27T16:31:07.244Z,97828.52
2019-02-27T16:33:40.003Z,97833.50
2019-02-27T16:36:12.923Z,97845.94
2019-02-27T16:38:42.766Z,97838.31
2019-02-27T16:41:13.194Z,97838.69
2019-02-27T16:43:47.690Z,97834.75
2019-02-27T16:46:16.186Z,97833.50
2019-02-27T16:48:46.814Z,97828.28
2019-02-27T16:51:18.406Z,97831.38
2019-02-27T16:53:52.337Z,97832.77
2019-02-27T16:56:21.096Z,97833.64
2019-02-27T16:58:51.466Z,97839.41
2019-02-27T17:01:22.046Z,97844.77
2019-02-27T17:03:59.591Z,97836.73
2019-02-27T17:06:24.879Z,97831.38
2019-02-27T17:08:55.216Z,97828.75
2019-02-27T17:11:25.597Z,97832.22
2019-02-27T17:13:57.715Z,97840.75
2019-02-27T17:16:28.721Z,97844.44
2019-02-27T17:19:02.745Z,97845.70
2019-02-27T17:21:36.132Z,97847.58
2019-02-27T17:24:06.598Z,97846.25
2019-02-27T17:26:39.153Z,97852.02
2019-02-27T17:29:11.563Z,97848.05
2019-02-27T17:31:48.924Z,97854.36
2019-02-27T17:34:14.434Z,97858.84
2019-02-27T17:37:06.482Z,97855.70
2019-02-27T17:39:37.643Z,97858.84
2019-02-27T17:42:09.137Z,97861.14
2019-02-27T17:44:40.924Z,97857.51
2019-02-27T17:47:13.955Z,97860.65
2019-02-27T17:49:45.855Z,97865.16
2019-02-27T17:52:16.415Z,97865.55
2019-02-27T17:54:46.793Z,97859.31
2019-02-27T17:57:17.388Z,97858.47
2019-02-27T17:59:47.875Z,97852.61
2019-02-27T18:02:18.720Z,97850.81
2019-02-27T18:04:53.029Z,97856.58
2019-02-27T18:07:34.095Z,97855.70
2019-02-27T18:09:58.326Z,97853.91
2019-02-27T18:12:30.084Z,97857.51
2019-02-27T18:15:00.545Z,97857.51
2019-02-27T18:17:34.659Z,97861.44
2019-02-27T18:20:03.238Z,97849.39
2019-02-27T18:22:35.987Z,97856.17
2019-02-27T18:25:07.474Z,97852.56
2019-02-27T18:27:38.845Z,97853.41
2019-02-27T18:30:10.313Z,97852.06
2019-02-27T18:32:40.937Z,97851.14
2019-02-27T18:35:11.536Z,97843.10
2019-02-27T18:37:42.043Z,97842.64
2019-02-27T18:40:14.147Z,97838.21
2019-02-27T18:42:44.813Z,97834.66
2019-02-27T18:45:16.315Z,97832.39
2019-02-27T18:47:51.480Z,97832.39
2019-02-27T18:50:24.775Z,97838.21
2019-02-27T18:52:54.068Z,97832.39
2019-02-27T18:55:29.605Z,97833.27
2019-02-27T18:57:56.803Z,97836.41
2019-02-27T19:00:27.202Z,97830.09
2019-02-27T19:02:57.945Z,97830.96
2019-02-27T19:05:28.389Z,97828.83
2019-02-27T19:07:58.945Z,97832.85
2019-02-27T19:10:29.603Z,97827.03
2019-02-27T19:13:01.126Z,97834.60
2019-02-27T19:15:31.576Z,97836.41
2019-02-27T19:18:03.737Z,97834.60
2019-02-27T19:20:34.262Z,97832.30
2019-02-27T19:23:04.614Z,97835.30
2019-02-27T19:25:35.526Z,97832.62
2019-02-27T19:28:06.539Z,97835.69
2019-02-27T19:30:38.704Z,97834.75
2019-02-27T19:33:10.982Z,97832.16
2019-02-27T19:35:41.446Z,97844.22
2019-02-27T19:38:12.970Z,97841.54
2019-02-27T19:40:44.104Z,97849.08
2019-02-27T19:43:18.113Z,97851.30
2019-02-27T19:45:47.662Z,97839.70
2019-02-27T19:48:18.224Z,97842.33
2019-02-27T19:50:48.618Z,97843.17
2019-02-27T19:53:19.155Z,97843.26
2019-02-27T19:55:49.521Z,97839.23
2019-02-27T19:58:20.196Z,97832.45
2019-02-27T20:00:52.380Z,97829.77
2019-02-27T20:03:22.739Z,97822.61
2019-02-27T20:05:56.121Z,97817.72
2019-02-27T20:08:27.010Z,97820.34
2019-02-27T20:10:57.476Z,97810.55
2019-02-27T20:13:29.163Z,97811.02
2019-02-27T20:15:59.846Z,97805.61
2019-02-27T20:18:33.459Z,97805.61
2019-02-27T20:21:06.178Z,97799.75
2019-02-27T20:23:37.036Z,97799.29
2019-02-27T20:26:14.103Z,97793.05
2019-02-27T20:28:45.612Z,97796.14
2019-02-27T20:31:20.250Z,97796.84
2019-02-27T20:33:49.313Z,97798.59
2019-02-27T20:36:21.756Z,97797.81
2019-02-27T20:38:56.500Z,97791.58
2019-02-27T20:41:29.764Z,97792.83
2019-02-27T20:44:03.415Z,97795.97
2019-02-27T20:46:33.348Z,97781.73
2019-02-27T20:49:03.896Z,97777.54
2019-02-27T20:51:39.787Z,97771.20
2019-02-27T20:54:07.029Z,97767.55
2019-02-27T20:56:37.688Z,97769.67
2019-02-27T20:59:08.271Z,97768.84
2019-02-27T21:01:38.936Z,97768.89
2019-02-27T21:04:09.910Z,97764.03
2019-02-27T21:06:47.227Z,97772.07
2019-02-27T21:09:17.892Z,97772.91
2019-02-27T21:11:48.455Z,97760.48
2019-02-27T21:14:20.503Z,97766.73
2019-02-27T21:16:51.253Z,97765.89
2019-02-27T21:19:22.132Z,97768.07
2019-02-27T21:21:54.439Z,97759.57
2019-02-27T21:24:25.157Z,97746.61
2019-02-27T21:26:57.220Z,97747.52
2019-02-27T21:29:28.396Z,97746.61
2019-02-27T21:32:01.617Z,97747.08
2019-02-27T21:34:32.863Z,97740.30
2019-02-27T21:37:03.311Z,97741.16
2019-02-27T21:39:34.614Z,97731.38
2019-02-27T21:42:05.033Z,97736.27
2019-02-27T21:44:35.674Z,97735.40
2019-02-27T21:47:06.069Z,97733.68
2019-02-27T21:49:36.474Z,97731.44
2019-02-27T21:52:09.082Z,97729.98
2019-02-27T21:54:39.495Z,97728.14
2019-02-27T21:57:10.304Z,97717.52
2019-02-27T21:59:40.712Z,97710.81
2019-02-27T22:02:12.214Z,97709.10
2019-02-27T22:04:44.129Z,97707.67
2019-02-27T22:07:14.503Z,97708.45
2019-02-27T22:09:45.488Z,97702.62
2019-02-27T22:12:16.820Z,97701.84
2019-02-27T22:14:48.760Z,97702.31
2019-02-27T22:17:19.685Z,97702.31
2019-02-27T22:19:53.324Z,97697.52
2019-02-27T22:22:22.090Z,97701.53
2019-02-27T22:24:55.620Z,97698.91
2019-02-27T22:27:24.297Z,97698.38
2019-02-27T22:29:55.886Z,97696.28
2019-02-27T22:32:26.829Z,97704.21
2019-02-27T22:34:59.233Z,97694.10
2019-02-27T22:37:29.137Z,97691.02
2019-02-27T22:39:59.375Z,97687.47
2019-02-27T22:42:29.663Z,97684.00
2019-02-27T22:45:00.627Z,97677.71
2019-02-27T22:47:34.284Z,97684.50
2019-02-27T22:50:06.904Z,97683.63
2019-02-27T22:52:36.785Z,97675.68
2019-02-27T22:55:10.223Z,97671.57
2019-02-27T22:57:39.260Z,97671.16
2019-02-27T23:00:29.733Z,97671.66
2019-02-27T23:03:01.648Z,97674.80
2019-02-27T23:05:31.988Z,97663.21
2019-02-27T23:08:02.311Z,97665.52
2019-02-27T23:10:33.089Z,97664.55
2019-02-27T23:13:03.438Z,97664.46
2019-02-27T23:15:33.872Z,97657.08
2019-02-27T23:18:05.762Z,97653.52
2019-02-27T23:20:36.455Z,97647.61
2019-02-27T23:23:06.717Z,97643.68
2019-02-27T23:25:37.047Z,97633.52
2019-02-27T23:28:08.770Z,97630.47
2019-02-27T23:30:39.179Z,97627.70
2019-02-27T23:33:09.572Z,97621.47
2019-02-27T23:35:40.032Z,97614.95
2019-02-27T23:38:10.485Z,97613.30
2019-02-27T23:40:40.784Z,97604.70
2019-02-27T23:43:11.212Z,97609.59
2019-02-27T23:45:44.517Z,97607.38
2019-02-27T23:48:13.596Z,97603.52
2019-02-27T23:50:44.815Z,97608.50
2019-02-27T23:53:15.293Z,97602.67
2019-02-27T23:55:45.677Z,97601.71
2019-02-27T23:58:17.417Z,97597.31
